createdAt,value
2023-04-20T00:01:53.888Z,31.85
2023-04-20T00:04:20.460Z,31.79
2023-04-20T00:06:47.124Z,31.89
2023-04-20T00:09:13.833Z,31.82
2023-04-20T00:11:40.540Z,31.84
2023-04-20T00:14:07.613Z,31.78
2023-04-20T00:16:34.275Z,31.82
2023-04-20T00:19:01.093Z,31.70
2023-04-20T00:21:27.774Z,31.85
2023-04-20T00:23:54.300Z,31.82
2023-04-20T00:26:21.219Z,31.92
2023-04-20T00:28:51.648Z,31.92
2023-04-20T00:31:19.088Z,31.86
2023-04-20T00:33:47.610Z,32.03
2023-04-20T00:36:14.136Z,31.91
2023-04-20T00:38:40.935Z,31.97
2023-04-20T00:41:07.502Z,31.93
2023-04-20T00:43:34.148Z,31.90
2023-04-20T00:46:00.936Z,31.78
2023-04-20T00:48:27.703Z,32.01
2023-04-20T00:50:54.319Z,32.02
2023-04-20T00:53:20.940Z,31.95
2023-04-20T00:55:50.349Z,31.81
2023-04-20T00:58:16.869Z,31.94
2023-04-20T01:00:44.307Z,31.92
2023-04-20T01:03:11.002Z,32.00
2023-04-20T01:05:38.018Z,32.17
2023-04-20T01:08:04.771Z,32.00
2023-04-20T01:10:31.383Z,32.16
2023-04-20T01:12:58.544Z,31.88
2023-04-20T01:15:26.160Z,31.93
2023-04-20T01:17:53.634Z,31.82
2023-04-20T01:20:20.561Z,31.79
2023-04-20T01:22:48.296Z,32.05
2023-04-20T01:25:15.155Z,31.96
2023-04-20T01:27:41.766Z,31.96
2023-04-20T01:30:08.834Z,31.96
2023-04-20T01:32:37.326Z,31.99
2023-04-20T01:35:04.222Z,31.98
2023-04-20T01:37:30.809Z,31.95
2023-04-20T01:39:57.427Z,31.83
2023-04-20T01:42:24.090Z,31.87
2023-04-20T01:44:50.675Z,31.95
2023-04-20T01:47:18.346Z,32.06
2023-04-20T01:49:45.284Z,32.01
2023-04-20T01:52:11.845Z,32.02
2023-04-20T01:54:38.459Z,32.00
2023-04-20T01:57:05.045Z,32.09
2023-04-20T01:59:31.635Z,32.05
2023-04-20T02:02:01.424Z,32.05
2023-04-20T02:04:28.022Z,31.84
2023-04-20T02:06:54.559Z,31.88
2023-04-20T02:09:21.134Z,31.93
2023-04-20T02:11:49.448Z,32.00
2023-04-20T02:14:16.165Z,32.10
2023-04-20T02:16:42.811Z,31.87
2023-04-20T02:19:09.887Z,32.15
2023-04-20T02:21:36.481Z,32.05
2023-04-20T02:24:03.078Z,32.16
2023-04-20T02:26:29.622Z,32.03
2023-04-20T02:28:56.205Z,32.10
2023-04-20T02:31:22.840Z,31.98
2023-04-20T02:33:49.932Z,32.10
2023-04-20T02:36:16.614Z,32.08
2023-04-20T02:38:43.195Z,32.15
2023-04-20T02:41:09.728Z,31.94
2023-04-20T02:43:36.697Z,31.97
2023-04-20T02:46:04.554Z,31.96
2023-04-20T02:48:31.241Z,32.02
2023-04-20T02:50:58.908Z,31.95
2023-04-20T02:53:27.796Z,32.05
2023-04-20T02:56:10.879Z,32.00
2023-04-20T02:58:43.850Z,32.29
2023-04-20T03:01:36.568Z,32.00
2023-04-20T03:04:10.301Z,32.07
2023-04-20T03:06:43.727Z,31.93
2023-04-20T03:09:14.800Z,31.98
2023-04-20T03:11:54.362Z,31.88
2023-04-20T03:14:37.931Z,31.99
2023-04-20T03:17:04.526Z,32.17
2023-04-20T03:19:31.453Z,32.00
2023-04-20T03:21:58.113Z,32.13
2023-04-20T03:24:24.806Z,32.07
2023-04-20T03:26:52.952Z,32.16
2023-04-20T03:29:29.108Z,32.13
2023-04-20T03:31:56.025Z,32.19
2023-04-20T03:34:22.886Z,32.14
2023-04-20T03:36:49.773Z,32.11
2023-04-20T03:39:16.538Z,32.16
2023-04-20T03:41:43.230Z,32.17
2023-04-20T03:44:10.014Z,32.03
2023-04-20T03:46:36.957Z,32.16
2023-04-20T03:49:03.554Z,32.09
2023-04-20T03:51:30.160Z,32.08
2023-04-20T03:53:57.834Z,31.98
2023-04-20T03:56:26.746Z,32.05
2023-04-20T03:58:56.678Z,32.11
2023-04-20T04:01:25.779Z,31.96
2023-04-20T04:03:52.703Z,32.27
2023-04-20T04:06:19.831Z,32.19
2023-04-20T04:08:46.592Z,32.11
2023-04-20T04:11:13.211Z,32.15
2023-04-20T04:13:39.767Z,32.11
2023-04-20T04:16:08.792Z,32.22
2023-04-20T04:18:35.736Z,32.19
2023-04-20T04:21:10.237Z,32.16
2023-04-20T04:23:38.693Z,32.30
2023-04-20T04:26:12.736Z,32.28
2023-04-20T04:28:42.625Z,32.25
2023-04-20T04:31:17.437Z,32.01
2023-04-20T04:33:45.719Z,32.25
2023-04-20T04:36:17.456Z,32.17
2023-04-20T04:38:44.751Z,32.15
2023-04-20T04:41:14.715Z,32.17
2023-04-20T04:43:43.106Z,32.19
2023-04-20T04:46:19.713Z,32.30
2023-04-20T04:48:46.793Z,32.15
2023-04-20T04:51:13.371Z,32.03
2023-04-20T04:53:39.963Z,32.22
2023-04-20T04:56:06.876Z,32.10
2023-04-20T04:58:33.570Z,32.28
2023-04-20T05:01:00.109Z,31.86
2023-04-20T05:03:26.887Z,32.18
2023-04-20T05:05:53.669Z,32.15
2023-04-20T05:08:21.342Z,31.82
2023-04-20T05:10:47.951Z,32.26
2023-04-20T05:13:14.519Z,32.08
2023-04-20T05:15:43.383Z,32.13
2023-04-20T05:18:10.522Z,32.04
2023-04-20T05:20:37.155Z,32.08
2023-04-20T05:23:04.331Z,32.02
2023-04-20T05:25:31.178Z,32.08
2023-04-20T05:27:57.669Z,32.04
2023-04-20T05:30:24.229Z,31.96
2023-04-20T05:32:52.317Z,32.00
2023-04-20T05:35:19.853Z,31.91
2023-04-20T05:37:47.686Z,32.17
2023-04-20T05:40:15.207Z,32.11
2023-04-20T05:42:41.756Z,32.19
2023-04-20T05:45:09.022Z,31.94
2023-04-20T05:47:35.716Z,32.05
2023-04-20T05:50:02.451Z,31.89
2023-04-20T05:52:28.951Z,32.01
2023-04-20T05:54:56.624Z,31.96
2023-04-20T05:57:24.529Z,31.93
2023-04-20T05:59:51.311Z,31.98
2023-04-20T06:02:17.985Z,32.38
2023-04-20T06:04:44.803Z,32.04
2023-04-20T06:07:11.541Z,32.07
2023-04-20T06:09:38.077Z,32.05
2023-04-20T06:12:04.790Z,32.21
2023-04-20T06:14:31.329Z,31.92
2023-04-20T06:16:57.904Z,32.16
2023-04-20T06:19:24.502Z,32.13
2023-04-20T06:21:51.083Z,32.03
2023-04-20T06:24:17.656Z,31.83
2023-04-20T06:26:44.215Z,31.79
2023-04-20T06:29:10.766Z,31.87
2023-04-20T06:31:37.398Z,31.89
2023-04-20T06:34:03.971Z,32.04
2023-04-20T06:36:31.220Z,32.03
2023-04-20T06:38:57.854Z,32.06
2023-04-20T06:41:24.403Z,31.91
2023-04-20T06:43:51.542Z,31.94
2023-04-20T06:46:18.188Z,31.92
2023-04-20T06:48:44.835Z,31.87
2023-04-20T06:51:13.031Z,31.96
2023-04-20T06:53:39.682Z,31.90
2023-04-20T06:56:06.571Z,31.81
2023-04-20T06:58:33.099Z,31.77
2023-04-20T07:00:59.743Z,31.77
2023-04-20T07:03:26.470Z,31.40
2023-04-20T07:05:53.110Z,32.08
2023-04-20T07:08:20.158Z,31.85
2023-04-20T07:10:46.741Z,31.91
2023-04-20T07:13:13.299Z,31.94
2023-04-20T07:15:39.891Z,31.85
2023-04-20T07:18:06.600Z,31.81
2023-04-20T07:20:33.255Z,31.72
2023-04-20T07:22:59.819Z,31.69
2023-04-20T07:25:26.392Z,31.37
2023-04-20T07:27:52.966Z,28.50
2023-04-20T07:30:19.569Z,28.90
2023-04-20T07:32:46.121Z,27.81
2023-04-20T07:35:12.665Z,27.34
2023-04-20T07:37:39.309Z,28.09
2023-04-20T07:40:06.869Z,27.22
2023-04-20T07:42:34.845Z,26.94
2023-04-20T07:45:01.479Z,26.60
2023-04-20T07:47:28.141Z,26.12
2023-04-20T07:49:54.904Z,26.09
2023-04-20T07:52:21.494Z,27.00
2023-04-20T07:54:48.110Z,26.66
2023-04-20T07:57:15.144Z,27.23
2023-04-20T07:59:41.774Z,26.95
2023-04-20T08:02:08.471Z,26.98
2023-04-20T08:04:38.732Z,27.18
2023-04-20T08:07:05.700Z,26.87
2023-04-20T08:09:32.358Z,27.24
2023-04-20T08:11:58.967Z,26.61
2023-04-20T08:14:25.700Z,26.50
2023-04-20T08:16:52.470Z,26.90
2023-04-20T08:19:19.105Z,27.15
2023-04-20T08:21:45.660Z,27.25
2023-04-20T08:24:13.301Z,27.29
2023-04-20T08:26:39.854Z,27.46
2023-04-20T08:29:06.525Z,27.31
2023-04-20T08:31:33.214Z,27.88
2023-04-20T08:33:59.808Z,27.99
2023-04-20T08:36:26.764Z,28.23
2023-04-20T08:39:09.884Z,28.17
2023-04-20T08:41:36.625Z,28.49
2023-04-20T08:44:03.410Z,28.51
2023-04-20T08:46:30.325Z,28.62
2023-04-20T08:48:57.150Z,28.83
2023-04-20T08:51:24.169Z,28.75
2023-04-20T08:53:50.750Z,29.02
2023-04-20T08:56:17.357Z,28.86
2023-04-20T08:58:43.969Z,28.97
2023-04-20T09:01:11.847Z,29.12
2023-04-20T09:03:41.138Z,29.19
2023-04-20T09:06:17.792Z,29.37
2023-04-20T09:08:45.089Z,29.41
2023-04-20T09:11:28.166Z,29.43
2023-04-20T09:14:06.633Z,29.47
2023-04-20T09:16:34.771Z,29.65
2023-04-20T09:19:01.436Z,29.58
2023-04-20T09:21:32.555Z,29.73
2023-04-20T09:24:03.892Z,29.78
2023-04-20T09:26:34.562Z,29.72
2023-04-20T09:29:01.908Z,29.64
2023-04-20T09:31:28.562Z,29.61
2023-04-20T09:33:58.180Z,29.64
2023-04-20T09:36:26.122Z,29.82
2023-04-20T09:39:13.485Z,30.01
2023-04-20T09:41:41.021Z,29.96
2023-04-20T09:44:08.001Z,29.83
2023-04-20T09:46:35.896Z,29.67
2023-04-20T09:49:04.876Z,29.66
2023-04-20T09:51:32.363Z,29.58
2023-04-20T09:53:59.797Z,29.83
2023-04-20T09:56:26.581Z,29.51
2023-04-20T09:58:53.790Z,29.93
2023-04-20T10:01:20.435Z,29.76
2023-04-20T10:03:47.323Z,30.09
2023-04-20T10:06:20.603Z,30.06
2023-04-20T10:08:48.899Z,29.92
2023-04-20T10:11:49.040Z,30.13
2023-04-20T10:14:23.918Z,30.32
2023-04-20T10:17:07.118Z,30.24
2023-04-20T10:19:38.905Z,30.07
2023-04-20T10:22:07.602Z,30.39
2023-04-20T10:24:34.204Z,30.54
2023-04-20T10:27:00.838Z,30.19
2023-04-20T10:29:27.744Z,30.49
2023-04-20T10:31:54.834Z,30.39
2023-04-20T10:34:34.489Z,30.51
2023-04-20T10:37:11.113Z,30.50
2023-04-20T10:39:44.133Z,30.39
2023-04-20T10:42:10.699Z,30.51
2023-04-20T10:44:50.461Z,30.32
2023-04-20T10:47:18.152Z,30.23
2023-04-20T10:49:45.174Z,30.04
2023-04-20T10:52:11.891Z,30.30
2023-04-20T10:54:39.185Z,29.93
2023-04-20T10:57:06.636Z,28.05
2023-04-20T10:59:37.262Z,27.81
2023-04-20T11:02:07.516Z,27.70
2023-04-20T11:04:34.534Z,27.40
2023-04-20T11:07:07.331Z,27.16
2023-04-20T11:09:34.588Z,27.20
2023-04-20T11:12:05.664Z,26.39
2023-04-20T11:14:38.181Z,26.09
2023-04-20T11:17:05.405Z,25.77
2023-04-20T11:19:33.100Z,25.35
2023-04-20T11:22:00.484Z,25.45
2023-04-20T11:24:31.483Z,25.65
2023-04-20T11:26:58.299Z,25.65
2023-04-20T11:29:27.962Z,25.86
2023-04-20T11:31:54.753Z,25.96
2023-04-20T11:34:22.376Z,26.06
2023-04-20T11:36:50.543Z,26.07
2023-04-20T11:39:27.068Z,26.40
2023-04-20T11:41:53.976Z,26.41
2023-04-20T11:44:21.251Z,26.48
2023-04-20T11:46:53.128Z,26.52
2023-04-20T11:49:23.632Z,26.52
2023-04-20T11:51:51.089Z,26.81
2023-04-20T11:54:19.159Z,26.86
2023-04-20T11:56:45.791Z,26.98
2023-04-20T11:59:13.938Z,26.98
2023-04-20T12:01:40.977Z,27.10
2023-04-20T12:04:07.931Z,27.23
2023-04-20T12:06:34.702Z,27.33
2023-04-20T12:09:01.478Z,27.33
2023-04-20T12:11:28.173Z,27.34
2023-04-20T12:13:54.856Z,27.31
2023-04-20T12:16:21.782Z,27.53
2023-04-20T12:18:48.499Z,27.52
2023-04-20T12:21:15.244Z,27.60
2023-04-20T12:23:42.721Z,27.83
2023-04-20T12:26:09.348Z,27.84
2023-04-20T12:28:35.904Z,27.77
2023-04-20T12:31:02.543Z,27.85
2023-04-20T12:33:29.724Z,28.00
2023-04-20T12:35:56.394Z,27.97
2023-04-20T12:38:23.033Z,27.94
2023-04-20T12:40:49.619Z,28.06
2023-04-20T12:43:16.377Z,28.03
2023-04-20T12:45:42.921Z,27.82
2023-04-20T12:48:09.478Z,28.25
2023-04-20T12:50:36.022Z,28.15
2023-04-20T12:53:02.666Z,28.45
2023-04-20T12:55:29.428Z,28.18
2023-04-20T12:57:56.053Z,28.37
2023-04-20T13:00:22.704Z,28.42
2023-04-20T13:02:49.936Z,28.37
2023-04-20T13:05:17.235Z,28.50
2023-04-20T13:07:43.927Z,28.40
2023-04-20T13:10:10.765Z,28.27
2023-04-20T13:12:37.359Z,28.16
2023-04-20T13:15:04.289Z,28.13
2023-04-20T13:17:31.488Z,28.29
2023-04-20T13:19:58.157Z,27.75
2023-04-20T13:22:24.767Z,27.10
2023-04-20T13:24:51.434Z,26.71
2023-04-20T13:27:18.091Z,26.18
2023-04-20T13:29:44.781Z,26.33
2023-04-20T13:32:11.744Z,26.69
2023-04-20T13:34:38.531Z,26.82
2023-04-20T13:37:05.216Z,26.84
2023-04-20T13:39:32.008Z,26.98
2023-04-20T13:41:58.676Z,27.09
2023-04-20T13:44:25.329Z,27.21
2023-04-20T13:46:51.967Z,27.24
2023-04-20T13:49:22.374Z,27.37
2023-04-20T13:51:49.663Z,27.30
2023-04-20T13:54:16.387Z,27.30
2023-04-20T13:56:43.191Z,27.29
2023-04-20T13:59:09.891Z,28.02
2023-04-20T14:01:36.901Z,28.35
2023-04-20T14:04:03.909Z,28.11
2023-04-20T14:06:31.232Z,27.83
2023-04-20T14:08:57.897Z,27.94
2023-04-20T14:11:24.468Z,28.15
2023-04-20T14:13:51.938Z,28.18
2023-04-20T14:16:18.634Z,28.24
2023-04-20T14:18:45.254Z,28.25
2023-04-20T14:21:11.846Z,28.28
2023-04-20T14:23:38.406Z,28.33
2023-04-20T14:26:05.066Z,28.36
2023-04-20T14:28:33.216Z,28.50
2023-04-20T14:31:01.430Z,28.54
2023-04-20T14:33:28.335Z,28.67
2023-04-20T14:35:55.082Z,28.56
2023-04-20T14:38:21.845Z,28.87
2023-04-20T14:40:48.778Z,28.85
2023-04-20T14:43:15.447Z,28.83
2023-04-20T14:45:42.101Z,28.94
2023-04-20T14:48:08.885Z,28.90
2023-04-20T14:50:35.643Z,29.03
2023-04-20T14:53:02.234Z,29.04
2023-04-20T14:55:28.817Z,29.15
2023-04-20T14:57:56.051Z,29.37
2023-04-20T15:00:27.693Z,29.33
2023-04-20T15:02:56.775Z,29.53
2023-04-20T15:05:24.820Z,29.80
2023-04-20T15:07:51.524Z,29.48
2023-04-20T15:10:19.349Z,29.57
2023-04-20T15:12:47.117Z,29.52
2023-04-20T15:15:13.893Z,29.58
2023-04-20T15:17:40.578Z,29.35
2023-04-20T15:20:07.883Z,29.45
2023-04-20T15:22:34.472Z,29.32
2023-04-20T15:25:01.094Z,29.64
2023-04-20T15:27:27.686Z,29.44
2023-04-20T15:29:54.614Z,29.32
2023-04-20T15:32:21.585Z,29.56
2023-04-20T15:34:48.345Z,29.58
2023-04-20T15:37:15.021Z,29.59
2023-04-20T15:39:41.688Z,29.71
2023-04-20T15:42:08.380Z,29.24
2023-04-20T15:44:35.002Z,29.48
2023-04-20T15:47:02.330Z,29.55
2023-04-20T15:49:28.941Z,29.93
2023-04-20T15:51:55.579Z,29.48
2023-04-20T15:54:23.692Z,29.47
2023-04-20T15:56:51.184Z,29.32
2023-04-20T15:59:18.489Z,29.48
2023-04-20T16:01:45.265Z,29.38
2023-04-20T16:04:12.086Z,29.54
2023-04-20T16:06:39.893Z,29.56
2023-04-20T16:09:07.025Z,29.41
2023-04-20T16:11:34.929Z,29.39
2023-04-20T16:14:01.620Z,29.21
2023-04-20T16:16:28.374Z,29.02
2023-04-20T16:18:55.338Z,29.04
2023-04-20T16:21:23.328Z,28.91
2023-04-20T16:23:56.677Z,29.09
2023-04-20T16:26:25.607Z,29.08
2023-04-20T16:28:53.050Z,29.22
2023-04-20T16:31:20.170Z,29.34
2023-04-20T16:33:47.012Z,29.42
2023-04-20T16:36:16.220Z,29.09
2023-04-20T16:38:43.408Z,28.91
2023-04-20T16:41:10.284Z,28.94
2023-04-20T16:43:37.185Z,29.06
2023-04-20T16:46:03.841Z,28.85
2023-04-20T16:48:31.390Z,28.87
2023-04-20T16:50:58.198Z,29.07
2023-04-20T16:53:25.292Z,28.79
2023-04-20T16:55:52.032Z,28.95
2023-04-20T16:58:18.770Z,29.04
2023-04-20T17:00:45.520Z,29.13
2023-04-20T17:03:13.572Z,28.97
2023-04-20T17:05:41.858Z,29.01
2023-04-20T17:08:09.188Z,29.17
2023-04-20T17:10:37.309Z,29.18
2023-04-20T17:13:04.230Z,29.25
2023-04-20T17:15:31.373Z,29.13
2023-04-20T17:17:58.897Z,29.04
2023-04-20T17:20:25.686Z,28.72
2023-04-20T17:22:52.297Z,28.82
2023-04-20T17:25:19.349Z,29.03
2023-04-20T17:27:46.114Z,28.98
2023-04-20T17:30:13.324Z,27.68
2023-04-20T17:32:40.281Z,27.55
2023-04-20T17:35:07.070Z,27.69
2023-04-20T17:37:35.373Z,27.51
2023-04-20T17:40:02.826Z,27.86
2023-04-20T17:42:29.470Z,27.88
2023-04-20T17:44:56.220Z,28.31
2023-04-20T17:47:22.975Z,28.92
2023-04-20T17:49:49.660Z,29.07
2023-04-20T17:52:19.438Z,29.31
2023-04-20T17:54:46.113Z,28.70
2023-04-20T17:57:14.112Z,28.60
2023-04-20T17:59:42.335Z,28.92
2023-04-20T18:02:09.313Z,29.45
2023-04-20T18:04:36.577Z,29.23
2023-04-20T18:07:03.783Z,29.29
2023-04-20T18:09:30.623Z,29.22
2023-04-20T18:11:57.329Z,29.39
2023-04-20T18:14:24.033Z,29.37
2023-04-20T18:16:52.484Z,29.25
2023-04-20T18:19:19.489Z,29.31
2023-04-20T18:21:46.466Z,29.25
2023-04-20T18:24:13.130Z,29.27
2023-04-20T18:26:39.928Z,29.17
2023-04-20T18:29:06.912Z,29.26
2023-04-20T18:31:33.567Z,29.37
2023-04-20T18:34:00.488Z,29.28
2023-04-20T18:36:27.176Z,29.41
2023-04-20T18:38:54.511Z,29.37
2023-04-20T18:41:23.290Z,29.42
2023-04-20T18:43:53.035Z,29.01
2023-04-20T18:46:19.747Z,29.45
2023-04-20T18:48:46.536Z,29.60
2023-04-20T18:51:13.350Z,29.57
2023-04-20T18:53:39.953Z,29.59
2023-04-20T18:56:08.021Z,29.75
2023-04-20T18:58:35.878Z,29.60
2023-04-20T19:01:03.667Z,29.58
2023-04-20T19:03:31.416Z,29.65
2023-04-20T19:05:58.267Z,29.57
2023-04-20T19:08:24.933Z,29.56
2023-04-20T19:10:53.942Z,29.31
2023-04-20T19:13:20.718Z,29.33
2023-04-20T19:15:47.319Z,29.25
2023-04-20T19:18:16.009Z,29.25
2023-04-20T19:20:42.967Z,29.11
2023-04-20T19:23:09.665Z,29.27
2023-04-20T19:25:38.048Z,29.29
2023-04-20T19:28:05.043Z,29.28
2023-04-20T19:30:31.851Z,29.15
2023-04-20T19:33:02.327Z,29.41
2023-04-20T19:35:29.076Z,29.54
2023-04-20T19:37:55.904Z,29.36
2023-04-20T19:40:24.647Z,29.71
2023-04-20T19:42:51.304Z,29.62
2023-04-20T19:45:18.091Z,29.64
2023-04-20T19:47:45.045Z,29.53
2023-04-20T19:50:12.352Z,29.50
2023-04-20T19:52:39.383Z,29.51
2023-04-20T19:55:06.720Z,29.60
2023-04-20T19:57:33.431Z,29.55
2023-04-20T20:00:00.229Z,29.64
2023-04-20T20:02:27.027Z,29.55
2023-04-20T20:04:54.901Z,29.48
2023-04-20T20:07:21.583Z,29.54
2023-04-20T20:09:48.275Z,29.55
2023-04-20T20:12:14.897Z,29.67
2023-04-20T20:14:41.634Z,29.53
2023-04-20T20:17:11.114Z,29.70
2023-04-20T20:19:37.806Z,29.73
2023-04-20T20:22:06.051Z,29.73
2023-04-20T20:24:32.863Z,29.74
2023-04-20T20:26:59.479Z,29.50
2023-04-20T20:29:26.169Z,29.54
2023-04-20T20:31:52.923Z,29.44
2023-04-20T20:34:19.599Z,29.58
2023-04-20T20:36:46.348Z,29.74
2023-04-20T20:39:15.572Z,29.78
2023-04-20T20:41:43.037Z,29.81
2023-04-20T20:44:12.505Z,29.73
2023-04-20T20:46:40.260Z,29.78
2023-04-20T20:49:07.378Z,29.67
2023-04-20T20:51:33.996Z,30.04
2023-04-20T20:54:00.839Z,29.91
2023-04-20T20:56:27.538Z,30.05
2023-04-20T20:58:54.302Z,29.65
2023-04-20T21:01:21.620Z,29.81
2023-04-20T21:03:50.025Z,29.85
2023-04-20T21:06:17.092Z,29.85
2023-04-20T21:08:43.767Z,29.66
2023-04-20T21:11:10.465Z,29.71
2023-04-20T21:13:37.068Z,29.74
2023-04-20T21:16:03.708Z,29.73
2023-04-20T21:18:30.832Z,29.70
2023-04-20T21:20:57.381Z,29.81
2023-04-20T21:23:23.983Z,29.89
2023-04-20T21:25:50.735Z,29.88
2023-04-20T21:28:17.313Z,29.89
2023-04-20T21:30:43.845Z,29.82
2023-04-20T21:33:12.932Z,29.68
2023-04-20T21:35:39.511Z,29.85
2023-04-20T21:38:06.237Z,30.01
2023-04-20T21:40:34.219Z,30.11
2023-04-20T21:43:00.936Z,29.84
2023-04-20T21:45:27.553Z,30.07
2023-04-20T21:47:55.411Z,29.93
2023-04-20T21:50:27.032Z,29.69
2023-04-20T21:52:54.734Z,30.00
2023-04-20T21:55:21.443Z,30.07
2023-04-20T21:57:48.205Z,30.01
2023-04-20T22:00:15.528Z,29.93
2023-04-20T22:02:44.248Z,30.01
2023-04-20T22:05:11.465Z,29.97
2023-04-20T22:07:38.805Z,29.93
2023-04-20T22:10:06.856Z,29.99
2023-04-20T22:12:40.293Z,29.97
2023-04-20T22:15:11.261Z,30.11
2023-04-20T22:17:38.190Z,30.18
2023-04-20T22:20:07.411Z,30.01
2023-04-20T22:22:34.695Z,29.97
2023-04-20T22:25:01.752Z,30.02
2023-04-20T22:27:28.881Z,30.06
2023-04-20T22:29:55.516Z,30.23
2023-04-20T22:32:22.146Z,30.23
2023-04-20T22:34:48.704Z,30.15
2023-04-20T22:37:15.267Z,30.33
2023-04-20T22:39:41.770Z,29.98
2023-04-20T22:42:08.358Z,30.10
2023-04-20T22:44:37.599Z,30.05
2023-04-20T22:47:04.245Z,30.11
2023-04-20T22:49:30.832Z,30.24
2023-04-20T22:51:57.500Z,30.11
2023-04-20T22:54:26.930Z,30.13
2023-04-20T22:56:53.560Z,30.03
2023-04-20T22:59:20.427Z,30.25
2023-04-20T23:01:47.138Z,30.31
2023-04-20T23:04:13.897Z,30.14
2023-04-20T23:06:43.779Z,30.24
2023-04-20T23:09:12.425Z,30.32
2023-04-20T23:11:39.652Z,30.25
2023-04-20T23:14:07.021Z,30.37
2023-04-20T23:16:33.758Z,30.27
2023-04-20T23:19:00.317Z,30.28
2023-04-20T23:21:28.552Z,30.31
2023-04-20T23:23:58.267Z,30.25
2023-04-20T23:26:24.959Z,30.29
2023-04-20T23:28:52.130Z,30.27
2023-04-20T23:31:21.643Z,30.32
2023-04-20T23:33:48.317Z,30.43
2023-04-20T23:36:14.919Z,30.26
2023-04-20T23:38:41.543Z,30.44
2023-04-20T23:41:10.081Z,30.43
2023-04-20T23:43:38.376Z,30.32
2023-04-20T23:46:05.753Z,30.23
2023-04-20T23:48:32.421Z,30.32
2023-04-20T23:50:59.052Z,30.34
2023-04-20T23:53:25.726Z,30.28
2023-04-20T23:55:55.316Z,30.45
2023-04-20T23:58:25.510Z,30.41
